Time;durP1;ratioP1;P1;durP2;ratioP2;P2;SDS_P1;SDS_P2;PMS_P1;PMS_P2;Temp;Humidity;BMP_temperature;BMP_pressure;BME280_temperature;BME280_humidity;BME280_pressure;Samples;Min_cycle;Max_cycle;Signal;HPM_P1;HPM_P2
2023/03/21 00:01:59;;;;;;;9.50;8.60;;;8.90;99.90;;;;;;4988283;28;20287;-65
2023/03/21 00:04:25;;;;;;;12.27;9.10;;;8.90;99.90;;;;;;4985998;28;20284;-65
2023/03/21 00:06:52;;;;;;;9.93;8.87;;;8.90;99.90;;;;;;4987404;28;20668;-66
2023/03/21 00:09:17;;;;;;;10.67;9.53;;;8.90;99.90;;;;;;4987812;28;20251;-65
2023/03/21 00:11:43;;;;;;;10.17;9.17;;;8.90;99.90;;;;;;4987241;28;20214;-64
2023/03/21 00:14:13;;;;;;;12.03;9.67;;;9.00;99.90;;;;;;4982214;28;20201;-65
2023/03/21 00:16:39;;;;;;;12.00;10.83;;;9.00;99.90;;;;;;4978177;28;20207;-64
2023/03/21 00:19:06;;;;;;;14.27;11.53;;;9.00;99.90;;;;;;4978059;28;20716;-64
2023/03/21 00:21:32;;;;;;;11.70;10.60;;;9.10;99.90;;;;;;4978089;28;20221;-64
2023/03/21 00:23:59;;;;;;;12.30;10.83;;;9.10;99.90;;;;;;4979363;28;20208;-64
2023/03/21 00:26:25;;;;;;;12.20;10.90;;;9.10;99.90;;;;;;4976190;28;20204;-65
2023/03/21 00:28:51;;;;;;;12.00;10.80;;;9.20;99.90;;;;;;4977993;28;20555;-64
2023/03/21 00:31:17;;;;;;;14.63;11.50;;;9.20;99.90;;;;;;4978304;28;20205;-66
2023/03/21 00:33:43;;;;;;;12.70;11.17;;;9.20;99.90;;;;;;4978218;28;20634;-65
2023/03/21 00:36:14;;;;;;;11.50;10.40;;;9.20;99.90;;;;;;4977615;28;20202;-63
2023/03/21 00:38:40;;;;;;;11.87;10.77;;;9.20;99.90;;;;;;4975976;28;20210;-64
2023/03/21 00:41:08;;;;;;;13.10;9.80;;;9.20;99.90;;;;;;4978916;28;20194;-64
2023/03/21 00:43:34;;;;;;;16.57;11.47;;;9.20;99.90;;;;;;4985791;28;20693;-65
2023/03/21 00:46:00;;;;;;;11.37;10.23;;;9.20;99.90;;;;;;4987151;28;20240;-65
2023/03/21 00:48:26;;;;;;;13.90;11.40;;;9.20;99.90;;;;;;4987160;28;20229;-65
2023/03/21 00:50:53;;;;;;;13.77;11.03;;;9.10;99.90;;;;;;4984990;28;20203;-65
2023/03/21 00:53:20;;;;;;;14.80;11.90;;;9.10;99.90;;;;;;4986779;28;20979;-64
2023/03/21 00:55:46;;;;;;;13.23;11.40;;;9.00;99.90;;;;;;4987301;28;20669;-65
2023/03/21 00:58:11;;;;;;;13.03;11.60;;;9.00;99.90;;;;;;4986639;28;20241;-65
2023/03/21 01:00:37;;;;;;;13.27;11.90;;;8.90;99.90;;;;;;4984052;28;20208;-66
2023/03/21 01:03:06;;;;;;;13.37;11.87;;;8.90;99.90;;;;;;4991295;28;20363;-66
2023/03/21 01:08:20;;;;;;;13.10;11.83;;;8.90;99.90;;;;;;4996153;28;20205;-64
2023/03/21 01:10:48;;;;;;;17.00;13.03;;;8.80;99.90;;;;;;4996369;28;20205;-65
2023/03/21 01:13:15;;;;;;;19.17;14.40;;;8.70;99.90;;;;;;4996521;28;20224;-64
2023/03/21 01:15:50;;;;;;;15.67;13.57;;;8.70;99.90;;;;;;4996431;28;20208;-64
2023/03/21 01:18:18;;;;;;;15.40;12.93;;;8.70;99.90;;;;;;4996559;28;20541;-64
2023/03/21 01:20:45;;;;;;;15.37;13.70;;;8.80;99.90;;;;;;4989312;28;20575;-65
2023/03/21 01:23:12;;;;;;;14.93;12.57;;;8.80;99.90;;;;;;4995826;28;20578;-64
2023/03/21 01:25:38;;;;;;;15.17;12.90;;;8.90;99.90;;;;;;4994294;28;20226;-64
2023/03/21 01:28:04;;;;;;;14.93;13.37;;;8.90;99.90;;;;;;4996087;28;20703;-62
2023/03/21 01:30:30;;;;;;;14.90;13.07;;;8.90;99.90;;;;;;4996190;28;20208;-63
2023/03/21 01:32:56;;;;;;;17.03;14.97;;;8.90;99.90;;;;;;4995797;28;20267;-63
2023/03/21 01:35:22;;;;;;;19.17;16.50;;;8.90;99.90;;;;;;4994642;28;20199;-64
2023/03/21 01:37:48;;;;;;;18.90;17.00;;;8.80;99.90;;;;;;4995690;28;20689;-64
2023/03/21 01:40:20;;;;;;;21.17;17.17;;;8.80;99.90;;;;;;4995513;28;20580;-65
2023/03/21 01:42:46;;;;;;;20.60;17.50;;;8.90;99.90;;;;;;4995708;28;20226;-64
2023/03/21 01:45:50;;;;;;;21.73;19.43;;;8.80;99.90;;;;;;4996410;28;20560;-65
2023/03/21 01:48:16;;;;;;;19.77;17.67;;;8.90;99.90;;;;;;4994415;28;20247;-64
2023/03/21 01:50:42;;;;;;;20.67;17.87;;;8.80;99.90;;;;;;4978119;28;20229;-65
2023/03/21 01:53:08;;;;;;;21.03;18.30;;;8.70;99.90;;;;;;4995669;28;20212;-65
2023/03/21 01:55:35;;;;;;;20.87;18.60;;;8.70;99.90;;;;;;4996277;28;20200;-64
2023/03/21 01:58:03;;;;;;;22.73;20.33;;;8.60;99.90;;;;;;4995774;28;20203;-66
2023/03/21 02:00:30;;;;;;;21.87;19.73;;;8.60;99.90;;;;;;4993620;28;20200;-65
2023/03/21 02:02:58;;;;;;;22.07;19.77;;;8.70;99.90;;;;;;4995523;28;20219;-65
2023/03/21 02:05:40;;;;;;;25.50;21.43;;;8.70;99.90;;;;;;4995982;28;21181;-64
2023/03/21 02:08:05;;;;;;;22.23;19.87;;;8.70;99.90;;;;;;4995624;28;20209;-65
2023/03/21 02:10:31;;;;;;;26.63;19.93;;;8.70;99.90;;;;;;4995533;28;20209;-64
2023/03/21 02:13:06;;;;;;;23.27;20.97;;;8.60;99.90;;;;;;4995133;28;20227;-64
2023/03/21 02:15:33;;;;;;;24.53;21.53;;;8.60;99.90;;;;;;4993516;28;20207;-66
2023/03/21 02:18:35;;;;;;;24.87;20.30;;;8.70;99.90;;;;;;4995325;28;20517;-64
2023/03/21 02:21:36;;;;;;;23.90;21.40;;;8.60;99.90;;;;;;4973972;28;20219;-65
2023/03/21 02:24:21;;;;;;;23.73;21.23;;;8.60;99.90;;;;;;4995823;28;20208;-65
2023/03/21 02:27:14;;;;;;;23.60;20.80;;;8.60;99.90;;;;;;4995174;28;21101;-64
2023/03/21 02:30:14;;;;;;;26.10;21.70;;;8.50;99.90;;;;;;4995171;28;20888;-64
2023/03/21 02:33:13;;;;;;;27.33;22.37;;;8.60;99.90;;;;;;4997098;28;20262;-65
2023/03/21 02:36:09;;;;;;;26.70;22.33;;;8.60;99.90;;;;;;4999743;28;20204;-64
2023/03/21 02:38:46;;;;;;;25.00;21.97;;;8.60;99.90;;;;;;4999554;28;20496;-65
2023/03/21 02:41:16;;;;;;;26.13;22.00;;;8.60;99.90;;;;;;4999414;28;20210;-65
2023/03/21 02:43:55;;;;;;;23.53;21.00;;;8.60;99.90;;;;;;4999049;28;20229;-64
2023/03/21 02:46:29;;;;;;;30.83;22.37;;;8.60;99.90;;;;;;4997673;28;20207;-65
2023/03/21 02:49:08;;;;;;;26.77;23.03;;;8.50;99.90;;;;;;4998772;28;20206;-64
2023/03/21 02:51:35;;;;;;;28.33;23.40;;;8.50;99.90;;;;;;4998524;28;20242;-65
2023/03/21 02:54:07;;;;;;;26.27;23.13;;;8.50;99.90;;;;;;4998670;28;20205;-65
2023/03/21 02:56:35;;;;;;;29.37;23.50;;;8.50;99.90;;;;;;4998519;28;20207;-65
2023/03/21 02:59:03;;;;;;;25.77;22.93;;;8.50;99.90;;;;;;4998533;28;20196;-65
2023/03/21 03:01:28;;;;;;;29.53;21.67;;;8.50;99.90;;;;;;4996354;28;20221;-64
2023/03/21 03:03:53;;;;;;;26.50;21.80;;;8.40;99.90;;;;;;4998293;28;20203;-64
2023/03/21 03:06:27;;;;;;;24.73;22.13;;;8.40;99.90;;;;;;4999024;28;20246;-65
2023/03/21 03:09:09;;;;;;;31.33;24.30;;;8.40;99.90;;;;;;4998624;28;20208;-64
2023/03/21 03:11:42;;;;;;;30.70;23.67;;;8.40;99.90;;;;;;4979886;28;20197;-64
2023/03/21 03:14:32;;;;;;;28.70;22.97;;;8.40;99.90;;;;;;4979241;28;20678;-65
2023/03/21 03:17:26;;;;;;;27.33;23.07;;;8.40;99.90;;;;;;4996117;28;20350;-65
2023/03/21 03:20:13;;;;;;;31.13;24.37;;;8.40;99.90;;;;;;4998193;28;20202;-65
2023/03/21 03:22:47;;;;;;;31.13;21.63;;;8.30;99.90;;;;;;4979512;28;20216;-65
2023/03/21 03:25:21;;;;;;;28.13;23.60;;;8.30;99.90;;;;;;4979245;28;20834;-64
2023/03/21 03:27:50;;;;;;;27.17;23.70;;;8.30;99.90;;;;;;4978863;28;20769;-64
2023/03/21 03:30:16;;;;;;;28.53;23.37;;;8.30;99.90;;;;;;4979246;28;20268;-66
2023/03/21 03:32:47;;;;;;;28.33;22.77;;;8.30;99.90;;;;;;4993853;28;20644;-65
2023/03/21 03:35:15;;;;;;;29.07;23.37;;;8.20;99.90;;;;;;4996945;28;20754;-65
2023/03/21 03:37:41;;;;;;;27.93;23.60;;;8.20;99.90;;;;;;4997783;28;20212;-65
2023/03/21 03:40:19;;;;;;;33.70;24.60;;;8.10;99.90;;;;;;4998054;28;20212;-64
2023/03/21 03:42:53;;;;;;;26.20;22.67;;;8.10;99.90;;;;;;4994707;28;20234;-65
2023/03/21 03:45:27;;;;;;;28.40;23.03;;;8.10;99.90;;;;;;4997151;28;20205;-66
2023/03/21 03:48:04;;;;;;;28.30;23.60;;;8.10;99.90;;;;;;4998022;28;20278;-69
2023/03/21 03:50:42;;;;;;;32.47;23.47;;;8.10;99.90;;;;;;4997766;28;20228;-65
2023/03/21 03:53:15;;;;;;;28.43;22.17;;;8.20;99.90;;;;;;4997891;28;20693;-64
2023/03/21 03:55:42;;;;;;;30.27;23.47;;;8.20;99.90;;;;;;4997316;28;20740;-63
2023/03/21 03:58:08;;;;;;;27.20;22.63;;;8.20;99.90;;;;;;4997046;28;20243;-64
2023/03/21 04:00:34;;;;;;;35.13;25.03;;;8.20;99.90;;;;;;4997975;28;20578;-64
2023/03/21 04:02:59;;;;;;;28.93;23.77;;;8.20;99.90;;;;;;4997506;28;20222;-63
2023/03/21 04:05:25;;;;;;;29.70;22.73;;;8.30;99.90;;;;;;4995550;28;20208;-64
2023/03/21 04:07:51;;;;;;;32.97;23.67;;;8.30;99.90;;;;;;4997044;28;20652;-63
2023/03/21 04:10:18;;;;;;;28.73;21.93;;;8.30;99.90;;;;;;4997989;28;20295;-64
2023/03/21 04:12:43;;;;;;;29.40;23.40;;;8.20;99.90;;;;;;4997857;28;20210;-64
2023/03/21 04:15:09;;;;;;;29.53;23.10;;;8.20;99.90;;;;;;4997203;28;20200;-64
2023/03/21 04:17:35;;;;;;;30.53;22.70;;;8.20;99.90;;;;;;4997919;28;20310;-64
2023/03/21 04:20:01;;;;;;;26.40;21.17;;;8.20;99.90;;;;;;4992711;28;20216;-65
2023/03/21 04:22:26;;;;;;;29.97;23.10;;;8.20;99.90;;;;;;4994320;28;20220;-65
2023/03/21 04:24:52;;;;;;;26.03;22.40;;;8.10;99.90;;;;;;4988232;28;20197;-65
2023/03/21 04:27:17;;;;;;;28.13;21.87;;;8.10;99.90;;;;;;4988121;28;20200;-64
2023/03/21 04:29:43;;;;;;;32.10;22.00;;;8.10;99.90;;;;;;4987769;28;20288;-64
2023/03/21 04:32:15;;;;;;;26.97;23.03;;;8.20;99.90;;;;;;4987712;28;20210;-65
2023/03/21 04:34:42;;;;;;;29.47;23.23;;;8.20;99.90;;;;;;4987375;28;20231;-65
2023/03/21 04:37:10;;;;;;;29.07;22.57;;;8.20;99.90;;;;;;4987065;28;20279;-66
2023/03/21 04:39:37;;;;;;;26.03;22.43;;;8.20;99.90;;;;;;4987399;28;20695;-66
2023/03/21 04:42:03;;;;;;;29.57;22.53;;;8.20;99.90;;;;;;4967663;28;20220;-65
2023/03/21 04:44:28;;;;;;;35.20;23.83;;;8.20;99.90;;;;;;4987471;28;20215;-63
2023/03/21 04:46:54;;;;;;;30.87;22.93;;;8.20;99.90;;;;;;4987631;28;20208;-65
2023/03/21 04:49:20;;;;;;;28.90;21.90;;;8.10;99.90;;;;;;4986335;28;20287;-65
2023/03/21 04:51:45;;;;;;;31.90;22.47;;;8.10;99.90;;;;;;4986680;28;20204;-65
2023/03/21 04:54:12;;;;;;;31.13;22.87;;;8.20;99.90;;;;;;4987109;28;20262;-65
2023/03/21 04:56:37;;;;;;;30.70;21.80;;;8.20;99.90;;;;;;4987382;28;20286;-64
2023/03/21 04:59:09;;;;;;;28.90;22.33;;;8.20;99.90;;;;;;4987149;28;20309;-65
2023/03/21 05:01:35;;;;;;;28.13;22.67;;;8.20;99.90;;;;;;4986964;28;20211;-66
2023/03/21 05:04:02;;;;;;;24.70;20.70;;;8.30;99.90;;;;;;4987467;28;20227;-65
2023/03/21 05:06:27;;;;;;;28.47;22.00;;;8.20;99.90;;;;;;4987084;28;20192;-65
2023/03/21 05:08:55;;;;;;;27.60;21.90;;;8.20;99.90;;;;;;4987500;28;20196;-64
2023/03/21 05:11:21;;;;;;;31.43;22.27;;;8.10;99.90;;;;;;4985371;28;21004;-65
2023/03/21 05:13:47;;;;;;;25.43;21.37;;;8.20;99.90;;;;;;4986214;28;20200;-72
2023/03/21 05:16:12;;;;;;;27.20;22.07;;;8.20;99.90;;;;;;4986071;28;20294;-66
2023/03/21 05:18:37;;;;;;;29.47;23.20;;;8.20;99.90;;;;;;4986906;28;20208;-64
2023/03/21 05:21:06;;;;;;;29.17;24.70;;;8.20;99.90;;;;;;4987906;28;20212;-63
2023/03/21 05:23:37;;;;;;;29.07;22.13;;;8.30;99.90;;;;;;4986160;28;20209;-65
2023/03/21 05:26:04;;;;;;;33.50;24.07;;;8.30;99.90;;;;;;4987031;28;20228;-64
2023/03/21 05:28:35;;;;;;;28.93;22.83;;;8.30;99.90;;;;;;4986883;28;20295;-64
2023/03/21 05:31:02;;;;;;;28.37;21.80;;;8.40;99.90;;;;;;4986908;28;20354;-64
2023/03/21 05:33:27;;;;;;;30.10;22.30;;;8.40;99.90;;;;;;4984872;28;20441;-64
2023/03/21 05:35:53;;;;;;;31.57;21.07;;;8.30;99.90;;;;;;4987885;28;20287;-65
2023/03/21 05:38:18;;;;;;;31.07;24.83;;;8.30;99.90;;;;;;4987526;28;20207;-66
2023/03/21 05:40:48;;;;;;;30.83;23.33;;;8.30;99.90;;;;;;4985809;28;20296;-65
2023/03/21 05:43:13;;;;;;;34.23;24.23;;;8.30;99.90;;;;;;4986754;28;20279;-65
2023/03/21 05:45:39;;;;;;;29.67;23.20;;;8.30;99.90;;;;;;4986262;28;20295;-66
2023/03/21 05:48:05;;;;;;;29.00;22.50;;;8.40;99.90;;;;;;4985167;28;20207;-65
2023/03/21 05:50:31;;;;;;;31.33;24.97;;;8.50;99.90;;;;;;4985601;28;20204;-65
2023/03/21 05:52:56;;;;;;;32.33;23.97;;;8.60;99.90;;;;;;4983997;28;20890;-65
2023/03/21 05:55:21;;;;;;;29.70;22.60;;;8.60;99.90;;;;;;4985676;28;20220;-65
2023/03/21 05:57:47;;;;;;;30.93;24.00;;;8.60;99.90;;;;;;4983716;28;20658;-65
2023/03/21 06:00:14;;;;;;;28.37;22.90;;;8.60;99.90;;;;;;4986492;28;20200;-65
2023/03/21 06:02:39;;;;;;;32.87;23.43;;;8.60;99.90;;;;;;4986419;28;20222;-65
2023/03/21 06:05:05;;;;;;;30.57;22.23;;;8.60;99.90;;;;;;4986277;28;20701;-66
2023/03/21 06:07:32;;;;;;;32.67;23.63;;;8.60;99.90;;;;;;4990334;28;20196;-64
2023/03/21 06:09:58;;;;;;;30.73;22.43;;;8.60;99.90;;;;;;4989907;28;20574;-65
2023/03/21 06:12:23;;;;;;;32.70;23.37;;;8.70;99.90;;;;;;4991815;28;20223;-63
2023/03/21 06:14:49;;;;;;;32.03;23.70;;;8.70;99.90;;;;;;4992243;28;20203;-63
2023/03/21 06:17:14;;;;;;;33.60;23.93;;;8.70;99.90;;;;;;4992892;28;20315;-67
2023/03/21 06:19:40;;;;;;;32.53;22.83;;;8.80;99.90;;;;;;4991794;28;20200;-65
2023/03/21 06:22:06;;;;;;;32.93;21.67;;;8.80;99.90;;;;;;4991306;28;20715;-65
2023/03/21 06:24:31;;;;;;;31.13;23.87;;;8.80;99.90;;;;;;4998073;28;20192;-64
2023/03/21 06:26:57;;;;;;;30.20;22.00;;;8.80;99.90;;;;;;5001796;28;21006;-64
2023/03/21 06:29:22;;;;;;;32.80;24.10;;;8.90;99.90;;;;;;5001907;28;20303;-65
2023/03/21 06:31:48;;;;;;;36.20;23.40;;;8.90;99.90;;;;;;5001751;28;20900;-65
2023/03/21 06:34:13;;;;;;;31.70;23.60;;;8.90;99.90;;;;;;5001799;28;20220;-64
2023/03/21 06:36:40;;;;;;;30.27;23.43;;;8.90;99.90;;;;;;4995664;28;20224;-65
2023/03/21 06:39:07;;;;;;;30.73;23.23;;;8.90;99.90;;;;;;4982391;28;20750;-64
2023/03/21 06:41:32;;;;;;;27.97;21.77;;;8.90;99.90;;;;;;4982741;28;20506;-64
2023/03/21 06:43:58;;;;;;;30.07;22.10;;;8.90;99.90;;;;;;4990135;28;20200;-65
2023/03/21 06:46:24;;;;;;;38.53;27.80;;;8.90;99.90;;;;;;5002202;28;20285;-65
2023/03/21 06:48:49;;;;;;;31.70;22.53;;;9.00;99.90;;;;;;5001138;28;20288;-67
2023/03/21 06:51:15;;;;;;;41.73;27.57;;;9.00;99.90;;;;;;5001336;28;20201;-64
2023/03/21 06:53:41;;;;;;;31.10;23.70;;;9.00;99.90;;;;;;5001886;28;20209;-66
2023/03/21 06:56:08;;;;;;;33.37;24.57;;;9.00;99.90;;;;;;5001739;28;20221;-65
2023/03/21 06:58:33;;;;;;;35.50;25.20;;;9.00;99.90;;;;;;5001753;28;20211;-65
2023/03/21 07:01:00;;;;;;;30.90;24.07;;;9.00;99.90;;;;;;5000371;28;20206;-65
2023/03/21 07:03:26;;;;;;;30.50;24.57;;;8.90;99.90;;;;;;4999259;28;20223;-65
2023/03/21 07:05:52;;;;;;;31.90;24.37;;;8.80;99.90;;;;;;5000935;28;20579;-65
2023/03/21 07:08:18;;;;;;;36.90;25.87;;;8.90;99.90;;;;;;5001388;28;20205;-64
2023/03/21 07:10:45;;;;;;;32.87;25.97;;;9.00;99.90;;;;;;5001769;28;20215;-66
2023/03/21 07:13:11;;;;;;;36.63;26.90;;;8.90;99.90;;;;;;5001541;28;20245;-64
2023/03/21 07:15:37;;;;;;;35.00;24.63;;;9.00;99.90;;;;;;5001662;28;20655;-68
2023/03/21 07:18:04;;;;;;;35.53;25.43;;;9.00;99.90;;;;;;4998014;28;20202;-65
2023/03/21 07:20:30;;;;;;;32.40;24.33;;;9.00;99.90;;;;;;4996351;28;20201;-67
2023/03/21 07:22:56;;;;;;;35.60;25.57;;;9.00;99.90;;;;;;4996474;28;20219;-66
2023/03/21 07:25:22;;;;;;;30.67;23.30;;;9.00;99.90;;;;;;4998942;28;20282;-66
2023/03/21 07:27:47;;;;;;;34.47;25.53;;;9.10;99.90;;;;;;4998548;28;20666;-66
2023/03/21 07:30:14;;;;;;;34.63;25.23;;;9.00;99.90;;;;;;4998129;28;20213;-65
2023/03/21 07:32:39;;;;;;;34.53;24.93;;;9.10;99.90;;;;;;4995360;28;20340;-65
2023/03/21 07:35:11;;;;;;;27.10;24.17;;;9.20;99.90;;;;;;4998391;28;20661;-65
2023/03/21 07:37:36;;;;;;;32.23;25.80;;;9.20;99.90;;;;;;4993989;28;20332;-65
2023/03/21 07:40:08;;;;;;;31.53;25.03;;;9.30;99.90;;;;;;4989363;28;20208;-64
2023/03/21 07:42:34;;;;;;;29.23;23.07;;;9.30;99.90;;;;;;4987321;28;20223;-65
2023/03/21 07:44:59;;;;;;;32.90;24.60;;;9.50;99.90;;;;;;4988448;28;20204;-64
2023/03/21 07:47:25;;;;;;;37.17;25.77;;;9.50;99.90;;;;;;4988728;28;20325;-64
2023/03/21 07:49:50;;;;;;;35.93;23.97;;;9.50;99.90;;;;;;4988544;28;20562;-64
2023/03/21 07:52:16;;;;;;;32.97;24.77;;;9.50;99.90;;;;;;4986750;28;20201;-66
2023/03/21 07:54:41;;;;;;;30.87;23.87;;;9.50;99.90;;;;;;4989032;28;20245;-65
2023/03/21 07:57:07;;;;;;;29.43;23.50;;;9.50;99.90;;;;;;4989070;28;20254;-64
2023/03/21 07:59:32;;;;;;;30.37;22.77;;;9.60;99.90;;;;;;4988947;28;20645;-65
2023/03/21 08:01:58;;;;;;;29.90;21.50;;;9.60;99.90;;;;;;4988697;28;20244;-65
2023/03/21 08:04:24;;;;;;;32.43;22.87;;;9.60;99.90;;;;;;4984468;28;20563;-65
2023/03/21 08:06:50;;;;;;;27.53;23.07;;;9.70;99.90;;;;;;4985769;28;20591;-66
2023/03/21 08:09:15;;;;;;;29.90;23.60;;;9.80;99.90;;;;;;4988019;28;20204;-65
2023/03/21 08:11:41;;;;;;;26.63;22.47;;;9.80;99.90;;;;;;4987830;28;20272;-64
2023/03/21 08:14:06;;;;;;;28.87;22.10;;;9.80;99.90;;;;;;4988015;28;20240;-64
2023/03/21 08:16:32;;;;;;;32.33;25.10;;;9.90;99.90;;;;;;4988718;28;20283;-65
2023/03/21 08:18:57;;;;;;;25.20;21.20;;;9.90;99.90;;;;;;4986142;28;20240;-65
2023/03/21 08:21:23;;;;;;;28.40;22.60;;;9.90;99.90;;;;;;4989470;28;20648;-66
2023/03/21 08:23:48;;;;;;;29.40;21.37;;;10.00;99.90;;;;;;4988339;28;20250;-66
2023/03/21 08:26:17;;;;;;;25.63;21.63;;;10.00;99.90;;;;;;4987969;28;20296;-66
2023/03/21 08:28:43;;;;;;;31.67;21.70;;;10.10;99.90;;;;;;4985930;28;20288;-65
2023/03/21 08:31:10;;;;;;;29.73;21.33;;;10.30;99.90;;;;;;4985959;28;20687;-65
2023/03/21 08:33:36;;;;;;;29.70;22.27;;;10.20;99.90;;;;;;4988448;28;20317;-65
2023/03/21 08:36:03;;;;;;;28.77;22.13;;;10.10;99.90;;;;;;4986608;28;20718;-65
2023/03/21 08:38:30;;;;;;;28.07;21.20;;;10.00;99.90;;;;;;4987093;28;20319;-65
2023/03/21 08:40:55;;;;;;;25.20;19.83;;;10.20;99.90;;;;;;4987380;28;20234;-65
2023/03/21 08:43:22;;;;;;;25.20;20.10;;;10.40;99.90;;;;;;4986383;28;20693;-65
2023/03/21 08:45:48;;;;;;;28.07;19.97;;;10.40;99.90;;;;;;4986217;28;20209;-66
2023/03/21 08:48:13;;;;;;;24.67;21.20;;;10.40;99.90;;;;;;4985501;28;20194;-63
2023/03/21 08:50:39;;;;;;;26.40;19.73;;;10.40;99.90;;;;;;4989244;28;20545;-65
2023/03/21 08:53:04;;;;;;;27.37;18.93;;;10.30;99.90;;;;;;4984853;28;20215;-64
2023/03/21 08:55:31;;;;;;;28.57;22.47;;;10.30;99.90;;;;;;4988254;28;20684;-65
2023/03/21 08:57:57;;;;;;;27.13;20.53;;;10.30;99.90;;;;;;4985040;28;20569;-69
2023/03/21 09:00:23;;;;;;;23.30;20.17;;;10.30;99.90;;;;;;4986622;28;20208;-70
2023/03/21 09:02:53;;;;;;;26.90;20.33;;;10.30;99.90;;;;;;4986653;28;20683;-69
2023/03/21 09:05:19;;;;;;;24.97;19.67;;;10.40;99.90;;;;;;4988077;28;20206;-73
2023/03/21 09:07:45;;;;;;;27.27;21.60;;;10.40;99.90;;;;;;4988380;28;20261;-71
2023/03/21 09:10:17;;;;;;;36.07;24.60;;;10.60;99.90;;;;;;4987066;28;20209;-71
2023/03/21 09:12:42;;;;;;;29.17;20.37;;;10.50;99.90;;;;;;4984290;28;20214;-71
2023/03/21 09:15:10;;;;;;;28.17;21.53;;;10.60;99.90;;;;;;4989212;28;20562;-79
2023/03/21 09:17:41;;;;;;;28.60;19.87;;;10.60;99.90;;;;;;4988528;28;20216;-77
2023/03/21 09:20:17;;;;;;;25.37;20.93;;;10.60;99.90;;;;;;4986345;28;20934;-79
2023/03/21 09:22:50;;;;;;;26.30;19.73;;;10.60;99.90;;;;;;4986215;28;20213;-79
2023/03/21 09:25:17;;;;;;;25.50;19.63;;;10.50;99.90;;;;;;4985106;28;20244;-76
2023/03/21 09:27:46;;;;;;;25.07;19.40;;;10.60;99.90;;;;;;4987594;28;20214;-79
2023/03/21 09:30:15;;;;;;;24.60;19.53;;;10.60;99.90;;;;;;4989795;28;20260;-77
2023/03/21 09:32:40;;;;;;;31.67;19.83;;;10.60;99.90;;;;;;4985253;28;20237;-78
2023/03/21 09:35:07;;;;;;;29.87;21.10;;;10.60;99.90;;;;;;4987119;28;20232;-79
2023/03/21 09:37:37;;;;;;;23.77;19.37;;;10.70;99.90;;;;;;4985972;28;20689;-79
2023/03/21 09:40:06;;;;;;;21.57;18.93;;;10.70;99.90;;;;;;4988970;28;20208;-75
2023/03/21 09:42:55;;;;;;;24.53;20.10;;;10.70;99.90;;;;;;4979741;28;20226;-70
2023/03/21 09:45:42;;;;;;;24.03;19.37;;;10.60;99.90;;;;;;4974677;28;20668;-85
2023/03/21 09:48:18;;;;;;;29.67;22.03;;;10.70;99.90;;;;;;4993932;28;20299;-84
2023/03/21 09:50:44;;;;;;;26.67;21.83;;;10.60;99.90;;;;;;4993404;28;20204;-85
2023/03/21 09:53:22;;;;;;;29.87;21.23;;;10.40;99.90;;;;;;4986090;28;20706;-85
2023/03/21 09:55:48;;;;;;;27.67;21.10;;;10.60;99.90;;;;;;4999430;28;20207;-82
2023/03/21 09:58:33;;;;;;;27.70;21.43;;;10.70;99.90;;;;;;4987575;28;20663;-85
2023/03/21 10:01:20;;;;;;;26.70;20.03;;;11.00;99.90;;;;;;4991682;28;20204;-83
2023/03/21 10:03:47;;;;;;;26.97;19.70;;;11.20;99.90;;;;;;4986983;28;20278;-79
2023/03/21 10:06:15;;;;;;;27.07;21.67;;;11.20;99.90;;;;;;4986152;28;20207;-77
2023/03/21 10:08:44;;;;;;;27.20;19.77;;;11.10;99.90;;;;;;4988170;28;20616;-84
2023/03/21 10:11:17;;;;;;;25.90;20.50;;;11.10;99.90;;;;;;4992379;28;20212;-84
2023/03/21 10:13:52;;;;;;;26.23;20.20;;;11.10;99.90;;;;;;4987992;28;20242;-73
2023/03/21 10:16:39;;;;;;;26.97;20.07;;;11.20;99.90;;;;;;4977538;28;20201;-86
2023/03/21 10:19:11;;;;;;;24.60;18.40;;;11.20;99.90;;;;;;4988437;28;20206;-85
2023/03/21 10:21:42;;;;;;;25.70;19.93;;;11.00;99.90;;;;;;4992064;28;20688;-81
2023/03/21 10:24:12;;;;;;;26.97;22.00;;;11.10;99.90;;;;;;4986699;28;20237;-87
2023/03/21 10:26:38;;;;;;;24.80;20.47;;;11.20;99.90;;;;;;4987973;28;20217;-87
2023/03/21 10:29:04;;;;;;;25.60;18.53;;;11.40;99.90;;;;;;4991805;28;20203;-82
2023/03/21 10:31:31;;;;;;;24.57;19.27;;;11.50;99.90;;;;;;4991011;28;20827;-82
2023/03/21 10:34:01;;;;;;;21.40;18.00;;;11.60;99.90;;;;;;4988464;28;20233;-85
2023/03/21 10:36:29;;;;;;;21.47;17.17;;;11.50;99.90;;;;;;4983025;28;20207;-86
2023/03/21 10:39:07;;;;;;;24.33;17.77;;;11.60;99.90;;;;;;4988301;28;20308;-86
2023/03/21 10:41:32;;;;;;;23.50;18.00;;;11.70;99.90;;;;;;4987449;28;20221;-85
2023/03/21 10:44:09;;;;;;;21.70;17.80;;;11.80;99.90;;;;;;4988802;28;20680;-85
2023/03/21 10:46:35;;;;;;;24.43;19.03;;;11.90;99.90;;;;;;4989638;28;20647;-86
2023/03/21 10:49:01;;;;;;;22.23;17.30;;;12.00;99.90;;;;;;4982002;28;20284;-84
2023/03/21 10:51:30;;;;;;;24.20;18.67;;;11.90;99.90;;;;;;4991061;28;20231;-74
2023/03/21 10:54:05;;;;;;;24.03;19.70;;;11.90;99.90;;;;;;4996233;28;20205;-74
2023/03/21 10:56:35;;;;;;;21.93;17.30;;;12.00;99.90;;;;;;4998809;28;20727;-72
2023/03/21 10:59:01;;;;;;;20.47;17.10;;;12.30;99.90;;;;;;4997426;28;20214;-73
2023/03/21 11:01:36;;;;;;;23.40;19.10;;;12.10;99.90;;;;;;4996581;28;20202;-75
2023/03/21 11:04:14;;;;;;;23.43;18.47;;;12.20;99.90;;;;;;4997500;28;20297;-73
2023/03/21 11:06:43;;;;;;;22.83;17.63;;;12.20;99.90;;;;;;4997974;28;20235;-73
2023/03/21 11:09:19;;;;;;;22.13;18.40;;;12.40;99.90;;;;;;4998556;28;20274;-73
2023/03/21 11:12:11;;;;;;;21.43;17.40;;;12.40;99.90;;;;;;4998863;28;20214;-73
2023/03/21 11:14:40;;;;;;;23.40;16.40;;;12.50;99.90;;;;;;4998957;28;20550;-73
2023/03/21 11:17:27;;;;;;;18.43;14.93;;;12.60;99.90;;;;;;4999060;28;20264;-73
2023/03/21 11:20:00;;;;;;;17.10;14.87;;;12.70;99.90;;;;;;4998662;28;20206;-72
2023/03/21 11:22:37;;;;;;;19.10;16.93;;;12.80;99.90;;;;;;4996002;28;20225;-72
2023/03/21 11:25:06;;;;;;;21.43;16.60;;;12.80;99.90;;;;;;4995613;28;20199;-73
2023/03/21 11:27:35;;;;;;;20.03;14.67;;;12.90;99.90;;;;;;4987614;28;20194;-72
2023/03/21 11:30:03;;;;;;;20.30;15.37;;;12.90;99.90;;;;;;4988168;28;20210;-73
2023/03/21 11:32:33;;;;;;;16.77;14.27;;;13.00;99.90;;;;;;4970104;28;21122;-73
2023/03/21 11:35:03;;;;;;;14.93;12.80;;;13.00;99.90;;;;;;4988405;28;20224;-73
2023/03/21 11:37:36;;;;;;;17.97;13.87;;;13.00;99.90;;;;;;4986169;28;20211;-73
2023/03/21 11:40:23;;;;;;;16.57;12.03;;;13.10;99.90;;;;;;4988013;28;20895;-73
2023/03/21 11:42:54;;;;;;;16.97;13.27;;;13.10;99.90;;;;;;4994729;28;20247;-73
2023/03/21 11:45:28;;;;;;;14.50;12.53;;;13.40;99.90;;;;;;4998468;28;20522;-74
2023/03/21 11:47:58;;;;;;;16.03;13.07;;;13.80;99.90;;;;;;4996059;28;20261;-72
2023/03/21 11:50:43;;;;;;;20.17;13.23;;;14.00;99.90;;;;;;4997806;28;20204;-73
2023/03/21 11:53:30;;;;;;;16.27;12.50;;;14.40;99.90;;;;;;4993068;28;20204;-73
2023/03/21 11:56:18;;;;;;;16.73;13.53;;;14.30;99.90;;;;;;4977876;28;20216;-73
2023/03/21 11:59:01;;;;;;;15.23;12.43;;;14.30;99.90;;;;;;4971767;28;20218;-73
2023/03/21 12:01:41;;;;;;;15.50;12.40;;;14.00;99.90;;;;;;4997286;28;20815;-73
2023/03/21 12:04:26;;;;;;;19.23;13.17;;;14.10;99.90;;;;;;4996722;28;20211;-73
2023/03/21 12:06:59;;;;;;;13.43;12.03;;;14.30;99.90;;;;;;4996355;28;20287;-73
2023/03/21 12:09:42;;;;;;;13.80;12.27;;;14.20;99.90;;;;;;4979042;28;20255;-73
2023/03/21 12:12:32;;;;;;;15.93;11.67;;;14.00;99.90;;;;;;4976602;28;20299;-73
2023/03/21 12:15:04;;;;;;;13.67;12.23;;;13.80;99.90;;;;;;4977855;28;20224;-73
2023/03/21 12:17:32;;;;;;;15.53;12.20;;;14.00;99.90;;;;;;4978560;28;20212;-71
2023/03/21 12:20:12;;;;;;;12.50;10.80;;;14.00;99.90;;;;;;4978646;28;20271;-71
2023/03/21 12:23:12;;;;;;;15.77;12.07;;;14.20;99.90;;;;;;4978637;28;20217;-71
2023/03/21 12:26:16;;;;;;;14.13;9.80;;;14.50;99.90;;;;;;4995084;28;20223;-74
2023/03/21 12:28:50;;;;;;;12.97;11.30;;;14.50;99.90;;;;;;4994235;28;20235;-74
2023/03/21 12:31:41;;;;;;;11.83;10.50;;;14.80;99.90;;;;;;4979068;28;20588;-72
2023/03/21 12:34:20;;;;;;;15.60;10.37;;;14.80;99.90;;;;;;4977241;28;20220;-76
2023/03/21 12:37:08;;;;;;;14.37;9.97;;;14.80;99.90;;;;;;4978445;28;20197;-75
2023/03/21 12:39:35;;;;;;;10.97;9.80;;;14.70;99.90;;;;;;4994476;28;20235;-75
2023/03/21 12:42:19;;;;;;;13.37;9.53;;;14.50;99.90;;;;;;4997157;28;20282;-75
2023/03/21 12:44:57;;;;;;;13.23;10.33;;;14.40;99.90;;;;;;4995889;28;21308;-75
2023/03/21 12:47:27;;;;;;;12.97;9.27;;;14.20;99.90;;;;;;4994183;28;20729;-76
2023/03/21 12:50:21;;;;;;;12.43;10.33;;;14.20;99.90;;;;;;4997518;28;20215;-80
2023/03/21 12:52:52;;;;;;;11.17;9.30;;;14.00;99.90;;;;;;4992513;28;20220;-74